Time;durP1;ratioP1;P1;durP2;ratioP2;P2;SDS_P1;SDS_P2;PMS_P1;PMS_P2;Temp;Humidity;BMP_temperature;BMP_pressure;BME280_temperature;BME280_humidity;BME280_pressure;Samples;Min_cycle;Max_cycle;Signal;HPM_P1;HPM_P2
2022/06/20 00:01:44;;;;;;;;;23.50;20.50;;;;;-146.67;38.65;73771.28;5101297;27;62012;-74
2022/06/20 00:04:17;;;;;;;;;27.50;18.75;;;;;-146.67;38.67;73787.25;5093670;27;62067;-74
2022/06/20 00:06:43;;;;;;;;;23.75;16.00;;;;;-146.67;38.21;73795.22;5104971;27;62074;-74
2022/06/20 00:09:10;;;;;;;;;19.50;17.25;;;;;-146.67;39.11;73803.22;5089212;27;62067;-74
2022/06/20 00:11:42;;;;;;;;;23.25;19.50;;;;;-146.67;38.90;73811.19;5088401;27;63005;-74
2022/06/20 00:14:12;;;;;;;;;21.50;21.00;;;;;-146.67;38.38;73801.22;5123091;27;61714;-74
2022/06/20 00:16:38;;;;;;;;;21.25;20.75;;;;;-146.67;38.76;73811.19;5105013;27;61937;-74
2022/06/20 00:19:03;;;;;;;;;27.25;19.25;;;;;-146.67;38.56;73793.22;5119544;27;61836;-74
2022/06/20 00:21:29;;;;;;;;;28.25;20.50;;;;;-146.67;38.75;73793.22;5098526;27;62079;-74
2022/06/20 00:23:54;;;;;;;;;23.00;16.75;;;;;-146.67;38.22;73811.19;5123831;27;61917;-74
2022/06/20 00:26:20;;;;;;;;;25.00;20.00;;;;;-146.67;38.59;73775.25;5118307;27;61683;-75
2022/06/20 00:28:46;;;;;;;;;26.50;22.75;;;;;-146.67;38.90;73779.25;5110704;27;61831;-75
2022/06/20 00:31:12;;;;;;;;;19.75;16.50;;;;;-146.67;38.79;73763.28;5099416;27;62838;-74
2022/06/20 00:33:38;;;;;;;;;24.25;19.50;;;;;-146.67;38.34;73763.28;5107359;27;61808;-75
2022/06/20 00:36:04;;;;;;;;;27.00;19.50;;;;;-146.67;38.39;73805.22;5084735;27;62011;-74
2022/06/20 00:38:30;;;;;;;;;18.75;17.25;;;;;-146.67;39.08;73817.19;5102771;27;61947;-74
2022/06/20 00:40:59;;;;;;;;;23.75;18.00;;;;;-146.67;38.78;73813.19;5098748;27;62013;-74
2022/06/20 00:43:35;;;;;;;;;21.50;18.25;;;;;-146.67;39.02;73797.22;5082537;28;61873;-74
2022/06/20 00:46:11;;;;;;;;;31.50;22.75;;;;;-146.67;38.79;73789.25;5095078;27;63443;-74
2022/06/20 00:48:50;;;;;;;;;31.50;20.50;;;;;-146.67;38.04;73789.25;5123558;27;61922;-74
2022/06/20 00:51:26;;;;;;;;;20.75;18.75;;;;;-146.67;38.78;73791.22;5093127;27;64988;-74
2022/06/20 00:54:07;;;;;;;;;18.75;17.00;;;;;-146.67;39.18;73803.22;5099898;27;61974;-74
2022/06/20 00:56:57;;;;;;;;;32.25;22.25;;;;;-146.67;38.84;73789.25;5098995;27;61803;-74
2022/06/20 00:59:46;;;;;;;;;20.00;18.50;;;;;-146.67;39.19;73821.19;5096490;27;62026;-74
2022/06/20 01:02:20;;;;;;;;;22.50;18.00;;;;;-146.67;38.48;73789.25;5108103;27;64940;-74
2022/06/20 01:04:57;;;;;;;;;20.00;18.00;;;;;-146.67;38.62;73789.25;5080312;27;61967;-74
2022/06/20 01:07:29;;;;;;;;;23.25;17.25;;;;;-146.67;38.57;73781.25;5087835;27;61952;-74
2022/06/20 01:09:58;;;;;;;;;23.25;18.50;;;;;-146.67;38.71;73767.28;5102361;27;61952;-74
2022/06/20 01:12:26;;;;;;;;;21.75;18.00;;;;;-146.67;38.92;73755.31;5100763;27;63363;-74
2022/06/20 01:14:52;;;;;;;;;25.25;20.25;;;;;-146.67;38.55;73753.31;5083904;27;61827;-74
2022/06/20 01:17:25;;;;;;;;;22.75;19.00;;;;;-146.67;39.10;73761.28;5105795;27;62057;-75
2022/06/20 01:19:58;;;;;;;;;19.75;16.25;;;;;-146.67;38.99;73755.31;5100188;27;61964;-75
2022/06/20 01:23:02;;;;;;;;;18.75;16.75;;;;;-146.67;38.82;73739.34;5108691;27;61868;-74
2022/06/20 01:25:42;;;;;;;;;20.75;17.25;;;;;-146.67;38.84;73727.34;5088618;27;62653;-74
2022/06/20 01:28:12;;;;;;;;;17.50;16.00;;;;;-146.67;38.40;73729.34;5098488;27;61818;-74
2022/06/20 01:30:43;;;;;;;;;19.25;15.50;;;;;-146.67;38.79;73721.38;5113116;27;61798;-74
2022/06/20 01:33:11;;;;;;;;;24.25;18.00;;;;;-146.67;39.13;73721.38;5099453;27;62903;-74
2022/06/20 01:38:28;;;;;;;;;19.75;16.50;;;;;-146.67;38.88;73683.44;5056283;28;61889;-74
2022/06/20 01:43:39;;;;;;;;;25.00;18.25;;;;;-146.67;38.90;73679.44;5055893;28;62078;-74
2022/06/20 01:46:09;;;;;;;;;20.50;18.75;;;;;-146.67;39.57;73703.41;5058443;28;62295;-74
2022/06/20 01:48:38;;;;;;;;;29.00;20.00;;;;;-146.67;39.68;73705.41;5056278;28;62354;-74
2022/06/20 01:51:07;;;;;;;;;27.75;17.75;;;;;-146.67;39.55;73711.38;5038930;28;62025;-74
2022/06/20 01:53:33;;;;;;;;;19.50;17.75;;;;;-146.67;39.61;73699.41;5036214;28;63141;-74
2022/06/20 01:56:01;;;;;;;;;18.25;15.25;;;;;-146.67;39.37;73687.44;5058206;28;61910;-74
2022/06/20 01:58:40;;;;;;;;;19.75;14.00;;;;;-146.67;39.56;73677.47;5038369;28;62171;-74
2022/06/20 02:01:07;;;;;;;;;18.75;17.75;;;;;-146.67;40.39;73667.47;5058972;28;61985;-74
2022/06/20 02:03:36;;;;;;;;;16.50;14.75;;;;;-146.67;39.35;73645.53;5041643;28;63340;-74
2022/06/20 02:06:03;;;;;;;;;23.00;19.50;;;;;-146.67;40.28;73639.53;5045242;28;62674;-74
2022/06/20 02:08:31;;;;;;;;;16.00;13.50;;;;;-146.67;41.20;73641.53;5041263;28;61973;-73
2022/06/20 02:11:02;;;;;;;;;16.25;14.25;;;;;-146.67;40.57;73649.50;5043716;28;62252;-74
2022/06/20 02:13:32;;;;;;;;;17.75;17.25;;;;;-146.67;39.88;73667.47;5061562;28;62988;-73
2022/06/20 02:16:03;;;;;;;;;15.50;14.00;;;;;-146.67;40.37;73725.38;5089674;27;61871;-74
2022/06/20 02:18:32;;;;;;;;;16.75;14.75;;;;;-146.67;40.38;73773.28;5104009;27;61880;-74
2022/06/20 02:21:12;;;;;;;;;20.75;15.00;;;;;-146.67;39.63;73809.19;5070307;27;61833;-74
2022/06/20 02:23:44;;;;;;;;;21.00;16.25;;;;;-146.67;40.67;73841.13;5104740;27;63180;-74
2022/06/20 02:26:13;;;;;;;;;17.25;15.00;;;;;-146.67;38.84;73851.13;5100780;27;62328;-74
2022/06/20 02:28:45;;;;;;;;;20.50;14.25;;;;;-146.67;40.14;73877.06;5105097;27;61828;-74
2022/06/20 02:31:11;;;;;;;;;13.00;13.00;;;;;-146.67;40.95;73869.09;5103391;27;61846;-74
2022/06/20 02:33:37;;;;;;;;;18.75;15.50;;;;;-146.67;41.09;73845.13;5110144;27;62668;-74
2022/06/20 02:36:05;;;;;;;;;17.75;16.75;;;;;-146.67;40.49;73847.13;5097896;27;62385;-74
2022/06/20 02:38:32;;;;;;;;;15.25;13.50;;;;;-146.67;40.50;73863.09;5124901;27;61816;-74
2022/06/20 02:40:58;;;;;;;;;15.75;14.50;;;;;-146.67;40.45;73871.06;5120854;27;61932;-74
2022/06/20 02:43:54;;;;;;;;;13.25;12.00;;;;;-146.67;39.65;73889.03;5124773;27;61929;-74
2022/06/20 02:46:25;;;;;;;;;16.00;14.00;;;;;-146.67;39.72;73911.00;5100903;27;61912;-74
2022/06/20 02:48:53;;;;;;;;;13.50;13.50;;;;;-146.67;40.43;73924.97;5082631;27;61916;-74
2022/06/20 02:51:26;;;;;;;;;16.00;15.25;;;;;-146.67;40.41;73918.97;5091375;27;61934;-74
2022/06/20 02:53:58;;;;;;;;;15.00;13.25;;;;;-146.67;39.83;73922.97;5116904;27;63085;-74
2022/06/20 02:56:27;;;;;;;;;17.75;13.00;;;;;-146.67;40.08;73909.00;5092641;27;61863;-74
2022/06/20 02:59:06;;;;;;;;;15.75;12.00;;;;;-146.67;39.72;73899.03;5104007;27;61732;-74
2022/06/20 03:01:44;;;;;;;;;21.50;13.75;;;;;-146.67;40.08;73915.00;5102774;27;62063;-74
2022/06/20 03:04:10;;;;;;;;;16.00;15.50;;;;;-146.67;40.53;73924.97;5102116;27;64000;-74
2022/06/20 03:06:47;;;;;;;;;19.25;12.00;;;;;-146.67;39.33;73938.94;5105766;27;61770;-74
2022/06/20 03:09:15;;;;;;;;;18.00;16.50;;;;;-146.67;39.74;73948.94;5121357;27;61851;-74
2022/06/20 03:11:42;;;;;;;;;16.25;15.75;;;;;-146.67;40.81;73954.91;5125456;27;62097;-74
2022/06/20 03:14:13;;;;;;;;;16.75;15.00;;;;;-146.67;40.32;73958.91;5112285;27;62063;-74
2022/06/20 03:16:39;;;;;;;;;23.75;18.00;;;;;-146.67;41.29;73954.91;5103987;27;61781;-74
2022/06/20 03:19:11;;;;;;;;;21.00;16.75;;;;;-146.67;40.14;73956.91;5119277;27;62123;-73
2022/06/20 03:21:39;;;;;;;;;16.00;15.25;;;;;-146.67;39.69;73948.94;5117716;27;61982;-74
2022/06/20 03:24:06;;;;;;;;;18.00;14.50;;;;;-146.67;39.80;73954.91;5097591;27;63247;-74
2022/06/20 03:26:32;;;;;;;;;16.75;16.75;;;;;-146.67;40.38;73960.91;5083278;28;61998;-74
2022/06/20 03:28:58;;;;;;;;;23.25;19.25;;;;;-146.67;39.80;73994.84;5113362;27;61812;-74
2022/06/20 03:31:24;;;;;;;;;19.50;17.50;;;;;-146.67;39.80;74012.81;5097443;27;61980;-73
2022/06/20 03:33:49;;;;;;;;;28.00;23.00;;;;;-146.67;40.45;74002.81;5096427;27;61824;-74
2022/06/20 03:36:22;;;;;;;;;27.00;22.25;;;;;-146.67;40.07;73978.88;5103938;27;62153;-74
2022/06/20 03:38:49;;;;;;;;;23.75;18.25;;;;;-146.67;40.42;73976.88;5115394;27;61867;-74
2022/06/20 03:41:18;;;;;;;;;25.25;21.50;;;;;-146.67;40.50;73968.88;5124794;27;61795;-75
2022/06/20 03:43:50;;;;;;;;;22.50;21.75;;;;;-146.67;40.24;73952.91;5109205;27;61828;-74
2022/06/20 03:46:21;;;;;;;;;22.00;18.00;;;;;-146.67;39.27;73950.94;5103851;27;61836;-74
2022/06/20 03:49:13;;;;;;;;;28.75;24.25;;;;;-146.67;39.88;73940.94;5114681;27;61895;-74
2022/06/20 03:52:01;;;;;;;;;19.50;17.75;;;;;-146.67;39.02;73962.91;5124152;27;62339;-74
2022/06/20 03:54:38;;;;;;;;;26.25;20.00;;;;;-146.67;39.90;73982.88;5109725;27;62095;-74
2022/06/20 03:57:10;;;;;;;;;17.25;15.25;;;;;-146.67;39.23;73988.84;5101664;27;61746;-74
2022/06/20 03:59:45;;;;;;;;;19.25;18.00;;;;;-146.67;39.94;73990.84;5083188;28;62403;-74
2022/06/20 04:02:18;;;;;;;;;24.75;19.25;;;;;-146.67;40.09;73990.84;5113356;27;62179;-74
2022/06/20 04:04:59;;;;;;;;;21.75;20.25;;;;;-146.67;39.95;73996.84;5102651;27;61969;-74
2022/06/20 04:07:48;;;;;;;;;23.75;19.00;;;;;-146.67;40.09;73988.84;5084250;27;61853;-74
2022/06/20 04:13:22;;;;;;;;;22.00;17.50;;;;;-146.67;39.77;73998.84;5121933;27;61833;-74
2022/06/20 04:16:05;;;;;;;;;19.00;17.75;;;;;-146.67;40.26;74024.78;5104679;27;65246;-74
2022/06/20 04:18:59;;;;;;;;;23.00;17.25;;;;;-146.67;39.90;74018.78;5109238;27;61766;-74
2022/06/20 04:21:38;;;;;;;;;18.75;16.50;;;;;-146.67;39.82;74014.81;5103381;27;61748;-74
2022/06/20 04:24:28;;;;;;;;;23.00;18.25;;;;;-146.67;40.05;74010.81;5102375;27;61827;-74
2022/06/20 04:27:31;;;;;;;;;18.75;16.25;;;;;-146.67;39.73;74010.81;5102455;27;62908;-74
2022/06/20 04:30:03;;;;;;;;;20.75;16.25;;;;;-146.67;39.68;74010.81;5095234;27;61722;-74
2022/06/20 04:32:43;;;;;;;;;23.75;21.50;;;;;-146.67;39.62;74010.81;5081696;27;62650;-74
2022/06/20 04:35:21;;;;;;;;;19.25;16.75;;;;;-146.67;39.59;74020.78;5103491;27;61812;-74
2022/06/20 04:37:53;;;;;;;;;22.00;17.25;;;;;-146.67;39.83;74014.81;5104965;27;62098;-74
2022/06/20 04:40:37;;;;;;;;;18.50;14.75;;;;;-146.67;39.55;74008.81;5123935;27;61765;-74
2022/06/20 04:43:10;;;;;;;;;26.25;18.25;;;;;-146.67;39.85;74000.81;5097944;27;61760;-74
2022/06/20 04:45:52;;;;;;;;;19.50;16.00;;;;;-146.67;39.48;74002.81;5103264;27;61844;-75
2022/06/20 04:48:20;;;;;;;;;18.50;13.25;;;;;-146.67;39.64;74008.81;5111279;27;62239;-74
2022/06/20 04:50:49;;;;;;;;;17.00;16.00;;;;;-146.67;39.28;74002.81;5123224;27;61714;-74
2022/06/20 04:53:25;;;;;;;;;17.00;16.00;;;;;-146.67;39.30;74008.81;5110423;27;61923;-74
2022/06/20 04:55:59;;;;;;;;;22.00;17.00;;;;;-146.67;39.37;74008.81;5083759;27;62134;-74
2022/06/20 04:58:49;;;;;;;;;15.00;13.75;;;;;-146.67;39.18;74014.81;5112254;27;61877;-74
2022/06/20 05:01:20;;;;;;;;;17.00;12.00;;;;;-146.67;39.13;74012.81;5094788;27;62083;-74
2022/06/20 05:03:55;;;;;;;;;18.50;13.50;;;;;-146.67;39.27;74018.78;5110098;27;61905;-74
2022/06/20 05:06:23;;;;;;;;;19.50;14.50;;;;;-146.67;39.18;74014.81;5123460;27;61841;-74
2022/06/20 05:08:54;;;;;;;;;14.50;13.00;;;;;-146.67;39.06;74018.78;5105176;27;62346;-78
2022/06/20 05:11:29;;;;;;;;;17.25;13.75;;;;;-146.67;38.59;74018.78;5084281;27;61862;-79
2022/06/20 05:14:22;;;;;;;;;16.00;15.75;;;;;-146.67;39.15;74006.81;5098571;27;61979;-78
2022/06/20 05:16:51;;;;;;;;;24.00;16.25;;;;;-146.67;39.04;74010.81;5102511;27;61871;-78
2022/06/20 05:19:45;;;;;;;;;14.00;12.25;;;;;-146.67;38.96;74016.78;5100462;27;62672;-79
2022/06/20 05:22:16;;;;;;;;;14.00;12.75;;;;;-146.67;39.37;74020.78;5101729;27;61886;-79
2022/06/20 05:24:44;;;;;;;;;19.75;14.25;;;;;-146.67;39.24;74026.78;5098347;27;61772;-79
2022/06/20 05:27:22;;;;;;;;;16.25;13.50;;;;;-146.67;38.73;74008.81;5102262;27;61726;-79
2022/06/20 05:29:50;;;;;;;;;14.25;10.50;;;;;-146.67;38.80;74016.78;5092921;27;62000;-79
2022/06/20 05:32:33;;;;;;;;;14.25;11.75;;;;;-146.67;38.89;74030.78;5096543;27;61764;-79
2022/06/20 05:35:17;;;;;;;;;12.75;9.75;;;;;-146.67;38.84;74024.78;5123074;27;61842;-80
2022/06/20 05:37:49;;;;;;;;;14.00;11.50;;;;;-146.67;38.51;74030.78;5090513;27;61948;-80
2022/06/20 05:40:21;;;;;;;;;15.75;10.75;;;;;-146.67;38.84;74040.75;5082719;27;63813;-80
2022/06/20 05:42:46;;;;;;;;;17.25;12.25;;;;;-146.67;38.65;74044.75;5121300;27;62330;-80
2022/06/20 05:45:21;;;;;;;;;10.00;9.75;;;;;-146.67;38.62;74042.75;5103270;27;61876;-81
2022/06/20 05:47:53;;;;;;;;;10.50;9.75;;;;;-146.67;38.65;74042.75;5085163;27;61955;-81
2022/06/20 05:50:39;;;;;;;;;13.00;9.00;;;;;-146.67;38.23;74058.72;5085986;27;64784;-75
2022/06/20 05:53:11;;;;;;;;;11.50;8.75;;;;;-146.67;38.44;74056.72;5076270;27;61894;-80
2022/06/20 05:55:44;;;;;;;;;8.25;7.00;;;;;-146.67;38.21;74062.72;5084344;27;62016;-81
2022/06/20 05:58:20;;;;;;;;;14.25;9.25;;;;;-146.67;38.62;74060.72;5124352;27;61774;-78
2022/06/20 06:00:47;;;;;;;;;10.50;9.00;;;;;-146.67;39.02;74060.72;5089162;27;62347;-77
2022/06/20 06:03:18;;;;;;;;;8.50;8.25;;;;;-146.67;38.63;74046.75;5121197;27;61776;-75
2022/06/20 06:05:58;;;;;;;;;11.00;9.00;;;;;-146.67;38.32;74050.72;5104070;27;61826;-74
2022/06/20 06:08:30;;;;;;;;;7.00;7.00;;;;;-146.67;38.38;74056.72;5083765;28;62048;-73
2022/06/20 06:11:23;;;;;;;;;11.00;7.50;;;;;-146.67;38.17;74058.72;5099274;27;63122;-75
2022/06/20 06:14:26;;;;;;;;;12.75;8.75;;;;;-146.67;38.31;74060.72;5083866;28;62324;-74
2022/06/20 06:17:21;;;;;;;;;12.25;6.50;;;;;-146.67;37.96;74060.72;5112706;27;61878;-74
2022/06/20 06:19:59;;;;;;;;;14.25;9.75;;;;;-146.67;38.21;74068.69;5122262;27;62172;-73
2022/06/20 06:22:30;;;;;;;;;8.50;6.75;;;;;-146.67;37.92;74034.75;5099031;27;63378;-74
2022/06/20 06:24:59;;;;;;;;;11.25;7.50;;;;;-146.67;37.71;74056.72;5086108;27;61925;-77
2022/06/20 06:27:31;;;;;;;;;9.25;7.75;;;;;-146.67;37.85;74054.72;5103245;27;61957;-77
2022/06/20 06:30:01;;;;;;;;;11.00;6.00;;;;;-146.67;37.75;74078.69;5085854;27;61726;-77
2022/06/20 06:32:44;;;;;;;;;11.00;8.00;;;;;-146.67;37.66;74082.69;5090706;27;61779;-78
2022/06/20 06:35:25;;;;;;;;;10.00;8.75;;;;;-146.67;37.73;74096.66;5084067;27;61955;-76
2022/06/20 06:38:01;;;;;;;;;7.50;7.50;;;;;-146.67;37.83;74106.63;5110242;27;61916;-78
2022/06/20 06:40:46;;;;;;;;;9.00;7.00;;;;;-146.67;37.92;74106.63;5088574;27;63150;-78
2022/06/20 06:43:38;;;;;;;;;9.00;5.25;;;;;-146.67;37.85;74106.63;5097962;27;62483;-81
2022/06/20 06:46:10;;;;;;;;;10.50;9.50;;;;;-146.67;37.66;74104.63;5110044;27;61796;-79
2022/06/20 06:48:56;;;;;;;;;8.00;6.50;;;;;-146.67;37.78;74100.63;5106823;27;61858;-77
2022/06/20 06:51:35;;;;;;;;;8.50;7.00;;;;;-146.67;37.67;74096.66;5090815;27;61959;-77
2022/06/20 06:54:12;;;;;;;;;9.00;8.00;;;;;-146.67;37.75;74084.66;5105434;27;61953;-76
2022/06/20 06:56:48;;;;;;;;;6.25;6.25;;;;;-146.67;37.46;74096.66;5112431;27;61934;-84
2022/06/20 06:59:30;;;;;;;;;10.00;8.25;;;;;-146.67;37.78;74102.63;5096425;27;61843;-77
2022/06/20 07:02:00;;;;;;;;;9.75;7.25;;;;;-146.67;37.22;74110.63;5115772;27;61874;-76
2022/06/20 07:04:35;;;;;;;;;10.00;7.25;;;;;-146.67;37.41;74116.59;5101929;27;63690;-77
2022/06/20 07:07:17;;;;;;;;;9.75;8.75;;;;;-146.67;37.71;74140.56;5080681;27;61917;-76
2022/06/20 07:09:54;;;;;;;;;8.00;6.50;;;;;-146.67;37.62;74140.56;5101101;27;61759;-76
2022/06/20 07:12:31;;;;;;;;;9.00;6.00;;;;;-146.67;37.94;74148.56;5103293;27;61968;-76
2022/06/20 07:15:10;;;;;;;;;13.00;12.00;;;;;-146.67;37.41;74146.56;5084128;27;64799;-76
2022/06/20 07:17:56;;;;;;;;;14.75;10.25;;;;;-146.67;37.78;74160.53;5103018;27;61921;-76
2022/06/20 07:20:27;;;;;;;;;8.50;5.75;;;;;-146.67;37.41;74152.53;5096681;27;61705;-76
2022/06/20 07:22:53;;;;;;;;;15.25;10.25;;;;;-146.67;37.92;74148.56;5099504;27;62050;-77
2022/06/20 07:25:22;;;;;;;;;10.50;8.25;;;;;-146.67;37.60;74146.56;5105378;27;62851;-77
2022/06/20 07:27:54;;;;;;;;;9.00;8.75;;;;;-146.67;37.68;74160.53;5102869;27;61770;-76
2022/06/20 07:30:26;;;;;;;;;13.25;12.25;;;;;-146.67;37.63;74160.53;5083415;28;61797;-76
2022/06/20 07:32:58;;;;;;;;;13.50;10.75;;;;;-146.67;37.09;74154.53;5090517;27;62111;-75
2022/06/20 07:35:29;;;;;;;;;11.50;9.75;;;;;-146.67;37.10;74172.50;5102038;27;62124;-75
2022/06/20 07:38:43;;;;;;;;;9.75;8.00;;;;;-146.67;37.35;74188.47;5105707;27;62497;-76
2022/06/20 07:41:13;;;;;;;;;14.25;13.50;;;;;-146.67;37.48;74190.47;5042201;28;61915;-76
2022/06/20 07:43:48;;;;;;;;;15.75;12.00;;;;;-146.67;37.30;74196.47;5060900;28;61996;-75
2022/06/20 07:46:21;;;;;;;;;13.00;11.50;;;;;-146.67;37.56;74198.47;5067701;28;65112;-75
2022/06/20 07:48:50;;;;;;;;;18.75;10.25;;;;;-146.67;37.59;74186.47;5080001;28;61878;-75
2022/06/20 07:51:21;;;;;;;;;13.00;10.00;;;;;-146.67;37.17;74212.44;5080433;28;61930;-74
2022/06/20 07:53:55;;;;;;;;;13.25;12.75;;;;;-146.67;37.41;74216.44;5079704;28;62108;-75
2022/06/20 07:56:34;;;;;;;;;17.75;14.00;;;;;-146.67;37.36;74206.44;5079760;28;61824;-75
2022/06/20 07:59:08;;;;;;;;;14.50;12.00;;;;;-146.67;37.35;74218.41;5080527;28;61949;-75
2022/06/20 08:01:52;;;;;;;;;19.00;12.00;;;;;-146.67;37.51;74212.44;5066381;27;62379;-75
2022/06/20 08:04:27;;;;;;;;;19.25;12.75;;;;;-146.67;37.26;74228.41;5060328;28;62301;-75
2022/06/20 08:06:59;;;;;;;;;12.25;10.25;;;;;-146.67;37.43;74218.41;5059284;28;61846;-75
2022/06/20 08:09:38;;;;;;;;;18.00;11.25;;;;;-146.67;37.37;74216.44;5049316;28;61808;-75
2022/06/20 08:12:03;;;;;;;;;11.00;9.50;;;;;-146.67;37.37;74216.44;5041355;28;61926;-75
2022/06/20 08:14:39;;;;;;;;;14.50;8.75;;;;;-146.67;37.42;74212.44;5042741;28;61859;-75
2022/06/20 08:17:08;;;;;;;;;16.50;10.00;;;;;-146.67;37.17;74186.47;5030112;28;64945;-75
2022/06/20 08:19:35;;;;;;;;;17.75;10.50;;;;;-146.67;37.02;74170.50;5034883;28;61853;-76
2022/06/20 08:22:26;;;;;;;;;16.50;9.75;;;;;-146.67;36.76;74150.53;5044181;28;61868;-75
2022/06/20 08:24:57;;;;;;;;;8.50;7.00;;;;;-146.67;36.74;74152.53;5062649;28;61873;-75
2022/06/20 08:27:30;;;;;;;;;9.75;7.50;;;;;-146.67;36.96;74140.56;5043233;28;63616;-75
2022/06/20 08:30:13;;;;;;;;;11.00;9.25;;;;;-146.67;37.00;74122.59;5044130;28;61975;-75
2022/06/20 08:32:46;;;;;;;;;12.50;8.50;;;;;-146.67;36.65;74100.63;5062287;28;62206;-75
2022/06/20 08:35:34;;;;;;;;;11.75;8.50;;;;;-146.67;36.35;74082.69;5044584;28;62076;-75
2022/06/20 08:38:09;;;;;;;;;12.00;9.50;;;;;-146.67;36.57;74090.66;5060965;28;61972;-75
2022/06/20 08:41:01;;;;;;;;;12.00;10.75;;;;;-146.67;36.43;74082.69;5062004;28;61836;-75
2022/06/20 08:43:52;;;;;;;;;12.50;10.25;;;;;-146.67;35.95;74034.75;5061506;28;62277;-75
2022/06/20 08:46:42;;;;;;;;;10.50;9.50;;;;;-146.67;36.30;74052.72;4990457;28;62113;-75
2022/06/20 08:49:28;;;;;;;;;13.50;12.00;;;;;-146.67;35.70;74016.78;4979743;28;62202;-76
2022/06/20 08:52:21;;;;;;;;;10.25;8.25;;;;;-146.67;36.20;74042.75;4998496;28;61881;-75
2022/06/20 08:55:05;;;;;;;;;14.50;9.00;;;;;-146.67;36.06;74046.75;4999255;28;61905;-76
2022/06/20 08:57:40;;;;;;;;;12.25;8.50;;;;;-146.67;35.67;74048.75;4992186;28;62040;-75
2022/06/20 09:00:09;;;;;;;;;9.50;8.50;;;;;-146.67;35.71;74050.72;4982407;28;63806;-78
2022/06/20 09:03:27;;;;;;;;;15.50;10.50;;;;;-146.67;35.54;74064.72;4979574;28;62142;-76
2022/06/20 09:05:55;;;;;;;;;8.75;6.50;;;;;-146.67;35.70;74060.72;4921721;28;62416;-75
2022/06/20 09:08:32;;;;;;;;;10.75;10.50;;;;;-146.67;35.58;74032.75;4931962;28;62066;-75
2022/06/20 09:11:22;;;;;;;;;12.25;9.00;;;;;-146.67;35.61;74036.75;4965730;28;62742;-76
2022/06/20 09:14:25;;;;;;;;;11.00;10.00;;;;;-146.67;35.33;74050.72;4977553;28;62083;-77
2022/06/20 09:16:56;;;;;;;;;14.75;12.00;;;;;-146.67;35.69;74088.66;4957455;28;62376;-76
2022/06/20 09:19:27;;;;;;;;;14.50;12.50;;;;;-146.67;35.93;74084.66;4960198;28;62088;-76
2022/06/20 09:22:27;;;;;;;;;14.75;8.50;;;;;-146.67;35.72;74088.66;4959838;28;61767;-75
2022/06/20 09:24:58;;;;;;;;;9.00;8.00;;;;;-146.67;35.61;74068.69;4982921;28;62350;-75
2022/06/20 09:27:56;;;;;;;;;11.75;9.50;;;;;-146.67;35.59;74070.69;5012642;28;62007;-76
2022/06/20 09:30:49;;;;;;;;;10.50;9.25;;;;;-146.67;35.44;74048.75;4922017;28;61902;-76
2022/06/20 09:33:35;;;;;;;;;14.25;10.75;;;;;-146.67;35.79;74066.69;4910684;28;61945;-76
2022/06/20 09:36:22;;;;;;;;;12.75;9.25;;;;;-146.67;35.61;74058.72;4924208;28;62011;-76
2022/06/20 09:38:48;;;;;;;;;14.00;12.00;;;;;-146.67;35.19;74030.78;4956393;28;62321;-75
2022/06/20 09:41:25;;;;;;;;;14.50;12.50;;;;;-146.67;35.31;74038.75;4960076;28;61813;-75
2022/06/20 09:44:09;;;;;;;;;15.00;11.50;;;;;-146.67;35.55;74058.72;4964801;28;61890;-75
2022/06/20 09:47:05;;;;;;;;;14.25;12.00;;;;;-146.67;35.17;74032.75;4999110;28;62662;-76
2022/06/20 09:49:34;;;;;;;;;13.75;10.25;;;;;-146.67;35.07;74008.81;4982917;28;61876;-76
2022/06/20 09:52:11;;;;;;;;;16.75;10.00;;;;;-146.67;35.18;73988.84;4982254;28;62218;-76
2022/06/20 09:55:06;;;;;;;;;10.00;10.00;;;;;-146.67;34.96;73964.91;4994305;28;62629;-76
2022/06/20 09:57:47;;;;;;;;;10.50;9.00;;;;;-146.67;34.65;73962.91;4982681;28;62161;-76
2022/06/20 10:00:23;;;;;;;;;11.50;10.00;;;;;-146.67;34.65;73952.91;4982049;28;62011;-75
2022/06/20 10:02:58;;;;;;;;;11.00;10.00;;;;;-146.67;34.62;73938.94;4998741;28;62043;-75
2022/06/20 10:05:44;;;;;;;;;11.50;7.00;;;;;-146.67;34.46;73928.97;4981701;28;64216;-75
2022/06/20 10:08:51;;;;;;;;;10.50;9.25;;;;;-146.67;34.35;73932.97;5073875;28;61928;-75
2022/06/20 10:11:43;;;;;;;;;9.75;8.50;;;;;-146.67;34.39;73915.00;5072387;28;61850;-75
2022/06/20 10:14:33;;;;;;;;;6.50;5.50;;;;;-146.67;33.83;73891.03;5047178;28;62420;-75
2022/06/20 10:17:23;;;;;;;;;11.50;8.50;;;;;-146.67;34.09;73875.06;5059041;28;63912;-77
2022/06/20 10:20:25;;;;;;;;;10.50;9.00;;;;;-146.67;33.71;73825.16;5061157;28;61905;-76
2022/06/20 10:23:09;;;;;;;;;11.00;7.75;;;;;-146.67;33.08;73787.25;5080920;28;62051;-74
2022/06/20 10:26:00;;;;;;;;;10.50;8.00;;;;;-146.67;33.04;73739.34;5063509;28;62014;-75
2022/06/20 10:28:46;;;;;;;;;7.75;6.00;;;;;-146.67;32.84;73733.34;5083134;28;61800;-75
2022/06/20 10:31:42;;;;;;;;;9.75;9.50;;;;;-146.67;32.30;73685.44;5063406;28;61946;-75
2022/06/20 10:34:07;;;;;;;;;8.50;8.50;;;;;-146.67;32.10;73663.47;5057013;28;62035;-77
2022/06/20 10:37:05;;;;;;;;;8.25;6.50;;;;;-146.67;31.98;73631.53;5064369;28;61891;-75
2022/06/20 10:40:16;;;;;;;;;8.00;5.50;;;;;-146.67;31.97;73617.56;5044362;28;64412;-75
2022/06/20 10:42:54;;;;;;;;;14.75;10.25;;;;;-146.67;31.54;73593.63;5001393;28;62177;-75
2022/06/20 10:45:31;;;;;;;;;8.75;5.50;;;;;-146.67;31.70;73593.63;5001568;28;62092;-77
2022/06/20 10:48:09;;;;;;;;;9.00;6.50;;;;;-146.67;31.52;73577.66;4989658;28;62212;-77
2022/06/20 10:51:12;;;;;;;;;8.00;6.25;;;;;-146.67;31.47;73555.69;5000946;28;61880;-77
2022/06/20 10:54:00;;;;;;;;;11.00;9.00;;;;;-146.67;31.25;73557.69;4998386;28;61965;-76
2022/06/20 10:56:40;;;;;;;;;10.00;7.00;;;;;-146.67;31.24;73559.69;5001808;28;62077;-76
2022/06/20 10:59:18;;;;;;;;;6.50;6.50;;;;;-146.67;31.31;73561.69;4985131;28;62353;-76
2022/06/20 11:01:53;;;;;;;;;7.50;6.50;;;;;-146.67;31.00;73547.72;5004223;28;61863;-77
2022/06/20 11:04:45;;;;;;;;;5.50;5.50;;;;;-146.67;31.34;73549.72;5002646;28;62004;-77
2022/06/20 11:07:46;;;;;;;;;9.25;6.00;;;;;-146.67;31.25;73513.78;5003648;28;61951;-76
2022/06/20 11:10:30;;;;;;;;;17.00;8.00;;;;;-146.67;31.11;73515.78;5021159;28;61922;-77
2022/06/20 11:13:29;;;;;;;;;8.25;5.50;;;;;-146.67;30.85;73507.78;5022663;28;65083;-77
2022/06/20 11:16:21;;;;;;;;;9.00;8.00;;;;;-146.67;30.61;73465.88;5083305;28;62414;-76
2022/06/20 11:18:59;;;;;;;;;7.50;6.75;;;;;-146.67;30.38;73433.94;5065278;28;61984;-76
2022/06/20 11:21:43;;;;;;;;;11.75;7.00;;;;;-146.67;29.74;73396.03;5083367;28;61805;-76
2022/06/20 11:24:33;;;;;;;;;8.00;6.00;;;;;-146.67;29.84;73350.13;5079880;28;62828;-76
2022/06/20 11:27:28;;;;;;;;;4.75;4.50;;;;;-146.67;29.92;73328.16;5083660;28;61805;-76
2022/06/20 11:30:04;;;;;;;;;9.33;4.67;;;;;-146.67;29.46;73320.19;5083737;28;61794;-76
2022/06/20 11:32:50;;;;;;;;;10.33;7.33;;;;;-146.67;29.32;73326.16;5082632;28;62002;-77
2022/06/20 11:35:30;;;;;;;;;6.33;5.00;;;;;-146.67;29.52;73334.16;5064719;28;62613;-76
2022/06/20 11:38:13;;;;;;;;;10.33;9.33;;;;;-146.67;29.83;73352.13;5064339;28;62067;-76
2022/06/20 11:40:41;;;;;;;;;7.00;6.33;;;;;-146.67;30.10;73368.09;5065364;28;61980;-76
2022/06/20 11:43:25;;;;;;;;;7.00;7.00;;;;;-146.67;29.80;73362.09;5083462;28;61714;-76
2022/06/20 11:46:05;;;;;;;;;7.00;5.67;;;;;-146.67;29.76;73348.13;5079314;28;61837;-76
2022/06/20 11:48:54;;;;;;;;;7.33;6.00;;;;;-146.67;29.45;73332.16;5064817;28;62098;-77
2022/06/20 11:51:49;;;;;;;;;7.33;6.33;;;;;-146.67;29.48;73310.19;5076011;28;62336;-76
2022/06/20 11:55:08;;;;;;;;;9.33;8.00;;;;;-146.67;29.43;73274.28;5077985;28;62357;-76
2022/06/20 11:57:43;;;;;;;;;9.00;7.33;;;;;-146.67;28.69;73206.41;5022865;28;64774;-77
2022/06/20 12:00:17;;;;;;;;;11.67;7.67;;;;;-146.67;28.49;73170.50;5040385;28;61809;-76
2022/06/20 12:02:49;;;;;;;;;9.00;6.00;;;;;-146.67;28.79;73140.56;5023207;28;62119;-77